Terminal Aerodrome Forecast
Issued by NWS Riverton, WY

Home | Current Version | Previous Version | Text Only | Print | Product List | Glossary On
Versions: 1 2 3 4 5 6 7 8 9 10 11 12
436
FTUS45 KRIW 051720
TAFRIW
TAF
KRIW 051720Z 0518/0618 VRB05KT P6SM SCT110 BKN250
     FM052000 15009KT P6SM SCT090 BKN150
     FM060200 30011KT P6SM SCT070 BKN100
     FM061400 06012KT P6SM VCSH SCT030 BKN070=

USA.gov is the U.S. government's official web portal to all federal, state and local government web resources and services.